sensor_id;sensor_type;location;lat;lon;timestamp;temperature;humidity
69006;SHT31;56061;51.748;19.620;2023-04-01T00:01:22;9.85;84.11
69006;SHT31;56061;51.748;19.620;2023-04-01T00:03:49;9.83;84.18
69006;SHT31;56061;51.748;19.620;2023-04-01T00:06:16;9.83;84.24
69006;SHT31;56061;51.748;19.620;2023-04-01T00:08:44;9.85;84.29
69006;SHT31;56061;51.748;19.620;2023-04-01T00:11:12;9.87;84.30
69006;SHT31;56061;51.748;19.620;2023-04-01T00:13:41;9.88;84.34
69006;SHT31;56061;51.748;19.620;2023-04-01T00:16:08;9.90;84.31
69006;SHT31;56061;51.748;19.620;2023-04-01T00:18:47;9.90;84.28
69006;SHT31;56061;51.748;19.620;2023-04-01T00:21:16;9.89;84.31
69006;SHT31;56061;51.748;19.620;2023-04-01T00:23:43;9.86;84.29
69006;SHT31;56061;51.748;19.620;2023-04-01T00:26:10;9.83;84.18
69006;SHT31;56061;51.748;19.620;2023-04-01T00:28:38;9.81;84.21
69006;SHT31;56061;51.748;19.620;2023-04-01T00:31:06;9.82;84.28
69006;SHT31;56061;51.748;19.620;2023-04-01T00:33:34;9.82;84.27
69006;SHT31;56061;51.748;19.620;2023-04-01T00:36:15;9.84;84.24
69006;SHT31;56061;51.748;19.620;2023-04-01T00:38:44;9.86;84.25
69006;SHT31;56061;51.748;19.620;2023-04-01T00:41:17;9.88;84.28
69006;SHT31;56061;51.748;19.620;2023-04-01T00:43:48;9.90;84.23
69006;SHT31;56061;51.748;19.620;2023-04-01T00:46:17;9.89;84.08
69006;SHT31;56061;51.748;19.620;2023-04-01T00:48:46;9.84;84.11
69006;SHT31;56061;51.748;19.620;2023-04-01T00:51:20;9.81;84.24
69006;SHT31;56061;51.748;19.620;2023-04-01T00:53:52;9.81;84.31
69006;SHT31;56061;51.748;19.620;2023-04-01T00:56:22;9.80;84.30
69006;SHT31;56061;51.748;19.620;2023-04-01T00:59:02;9.81;84.34
69006;SHT31;56061;51.748;19.620;2023-04-01T01:01:34;9.81;84.38
69006;SHT31;56061;51.748;19.620;2023-04-01T01:04:02;9.81;84.33
69006;SHT31;56061;51.748;19.620;2023-04-01T01:12:07;9.75;84.33
69006;SHT31;56061;51.748;19.620;2023-04-01T01:17:55;9.64;84.49
69006;SHT31;56061;51.748;19.620;2023-04-01T01:23:43;9.59;84.61
69006;SHT31;56061;51.748;19.620;2023-04-01T01:35:52;9.66;84.72
69006;SHT31;56061;51.748;19.620;2023-04-01T01:38:23;9.68;84.74
69006;SHT31;56061;51.748;19.620;2023-04-01T01:40:55;9.67;84.73
69006;SHT31;56061;51.748;19.620;2023-04-01T01:43:25;9.66;84.72
69006;SHT31;56061;51.748;19.620;2023-04-01T01:45:58;9.65;84.71
69006;SHT31;56061;51.748;19.620;2023-04-01T01:48:33;9.62;84.70
69006;SHT31;56061;51.748;19.620;2023-04-01T01:51:01;9.61;84.68
69006;SHT31;56061;51.748;19.620;2023-04-01T01:53:31;9.59;84.68
69006;SHT31;56061;51.748;19.620;2023-04-01T01:55:58;9.57;84.70
69006;SHT31;56061;51.748;19.620;2023-04-01T01:58:27;9.57;84.73
69006;SHT31;56061;51.748;19.620;2023-04-01T02:01:07;9.59;84.74
69006;SHT31;56061;51.748;19.620;2023-04-01T02:03:40;9.60;84.71
69006;SHT31;56061;51.748;19.620;2023-04-01T02:06:11;9.56;84.70
69006;SHT31;56061;51.748;19.620;2023-04-01T02:08:56;9.55;84.70
69006;SHT31;56061;51.748;19.620;2023-04-01T02:11:35;9.52;84.73
69006;SHT31;56061;51.748;19.620;2023-04-01T02:14:11;9.51;84.79
69006;SHT31;56061;51.748;19.620;2023-04-01T02:16:47;9.49;84.83
69006;SHT31;56061;51.748;19.620;2023-04-01T02:19:22;9.48;84.79
69006;SHT31;56061;51.748;19.620;2023-04-01T02:21:59;9.46;84.75
69006;SHT31;56061;51.748;19.620;2023-04-01T02:24:30;9.45;84.78
69006;SHT31;56061;51.748;19.620;2023-04-01T02:27:01;9.45;84.81
69006;SHT31;56061;51.748;19.620;2023-04-01T02:29:29;9.44;84.71
69006;SHT31;56061;51.748;19.620;2023-04-01T02:31:56;9.41;84.76
69006;SHT31;56061;51.748;19.620;2023-04-01T02:34:23;9.40;84.74
69006;SHT31;56061;51.748;19.620;2023-04-01T02:36:52;9.37;84.70
69006;SHT31;56061;51.748;19.620;2023-04-01T02:39:20;9.36;84.70
69006;SHT31;56061;51.748;19.620;2023-04-01T02:41:47;9.34;84.68
69006;SHT31;56061;51.748;19.620;2023-04-01T02:44:14;9.33;84.67
69006;SHT31;56061;51.748;19.620;2023-04-01T02:46:41;9.32;84.70
69006;SHT31;56061;51.748;19.620;2023-04-01T02:49:08;9.30;84.68
69006;SHT31;56061;51.748;19.620;2023-04-01T02:51:35;9.30;84.76
69006;SHT31;56061;51.748;19.620;2023-04-01T02:54:01;9.31;84.75
69006;SHT31;56061;51.748;19.620;2023-04-01T02:56:28;9.28;84.63
69006;SHT31;56061;51.748;19.620;2023-04-01T02:58:55;9.24;84.67
69006;SHT31;56061;51.748;19.620;2023-04-01T03:01:21;9.21;84.71
69006;SHT31;56061;51.748;19.620;2023-04-01T03:03:48;9.19;84.76
69006;SHT31;56061;51.748;19.620;2023-04-01T03:06:16;9.20;84.85
69006;SHT31;56061;51.748;19.620;2023-04-01T03:08:43;9.21;84.86
69006;SHT31;56061;51.748;19.620;2023-04-01T03:11:10;9.20;84.87
69006;SHT31;56061;51.748;19.620;2023-04-01T03:13:38;9.21;84.90
69006;SHT31;56061;51.748;19.620;2023-04-01T03:16:04;9.21;84.88
69006;SHT31;56061;51.748;19.620;2023-04-01T03:18:31;9.20;84.85
69006;SHT31;56061;51.748;19.620;2023-04-01T03:21:11;9.19;84.85
69006;SHT31;56061;51.748;19.620;2023-04-01T03:23:40;9.17;84.87
69006;SHT31;56061;51.748;19.620;2023-04-01T03:26:07;9.14;84.90
69006;SHT31;56061;51.748;19.620;2023-04-01T03:28:33;9.13;84.90
69006;SHT31;56061;51.748;19.620;2023-04-01T03:31:00;9.13;84.89
69006;SHT31;56061;51.748;19.620;2023-04-01T03:33:27;9.15;84.90
69006;SHT31;56061;51.748;19.620;2023-04-01T03:35:53;9.15;84.87
69006;SHT31;56061;51.748;19.620;2023-04-01T03:38:20;9.17;84.84
69006;SHT31;56061;51.748;19.620;2023-04-01T03:40:46;9.17;84.80
69006;SHT31;56061;51.748;19.620;2023-04-01T03:43:13;9.16;84.71
69006;SHT31;56061;51.748;19.620;2023-04-01T03:45:49;9.11;84.68
69006;SHT31;56061;51.748;19.620;2023-04-01T03:48:17;9.09;84.74
69006;SHT31;56061;51.748;19.620;2023-04-01T03:50:44;9.05;84.72
69006;SHT31;56061;51.748;19.620;2023-04-01T03:53:11;9.03;84.70
69006;SHT31;56061;51.748;19.620;2023-04-01T03:55:38;8.99;84.66
69006;SHT31;56061;51.748;19.620;2023-04-01T03:58:05;8.98;84.68
69006;SHT31;56061;51.748;19.620;2023-04-01T04:00:33;8.97;84.69
69006;SHT31;56061;51.748;19.620;2023-04-01T04:02:59;8.94;84.62
69006;SHT31;56061;51.748;19.620;2023-04-01T04:05:27;8.94;84.69
69006;SHT31;56061;51.748;19.620;2023-04-01T04:07:54;8.92;84.62
69006;SHT31;56061;51.748;19.620;2023-04-01T04:10:20;8.88;84.56
69006;SHT31;56061;51.748;19.620;2023-04-01T04:12:49;8.84;84.60
69006;SHT31;56061;51.748;19.620;2023-04-01T04:15:16;8.79;84.59
69006;SHT31;56061;51.748;19.620;2023-04-01T04:17:43;8.74;84.60
69006;SHT31;56061;51.748;19.620;2023-04-01T04:20:11;8.71;84.65
69006;SHT31;56061;51.748;19.620;2023-04-01T04:22:38;8.71;84.68
69006;SHT31;56061;51.748;19.620;2023-04-01T04:25:04;8.71;84.73
69006;SHT31;56061;51.748;19.620;2023-04-01T04:27:32;8.73;84.70
69006;SHT31;56061;51.748;19.620;2023-04-01T04:30:00;8.73;84.68
69006;SHT31;56061;51.748;19.620;2023-04-01T04:32:26;8.73;84.66
69006;SHT31;56061;51.748;19.620;2023-04-01T04:34:55;8.71;84.60
69006;SHT31;56061;51.748;19.620;2023-04-01T04:37:21;8.68;84.58
69006;SHT31;56061;51.748;19.620;2023-04-01T04:39:47;8.64;84.59
69006;SHT31;56061;51.748;19.620;2023-04-01T04:42:14;8.61;84.66
69006;SHT31;56061;51.748;19.620;2023-04-01T04:44:40;8.59;84.69
69006;SHT31;56061;51.748;19.620;2023-04-01T04:47:07;8.59;84.75
69006;SHT31;56061;51.748;19.620;2023-04-01T04:49:33;8.60;84.72
69006;SHT31;56061;51.748;19.620;2023-04-01T04:52:00;8.61;84.70
69006;SHT31;56061;51.748;19.620;2023-04-01T04:54:26;8.63;84.70
69006;SHT31;56061;51.748;19.620;2023-04-01T04:56:53;8.63;84.68
69006;SHT31;56061;51.748;19.620;2023-04-01T04:59:20;8.64;84.63
69006;SHT31;56061;51.748;19.620;2023-04-01T05:01:46;8.63;84.60
69006;SHT31;56061;51.748;19.620;2023-04-01T05:04:13;8.63;84.55
69006;SHT31;56061;51.748;19.620;2023-04-01T05:06:39;8.62;84.54
69006;SHT31;56061;51.748;19.620;2023-04-01T05:09:06;8.64;84.52
69006;SHT31;56061;51.748;19.620;2023-04-01T05:11:32;8.68;84.49
69006;SHT31;56061;51.748;19.620;2023-04-01T05:13:59;8.71;84.42
69006;SHT31;56061;51.748;19.620;2023-04-01T05:16:25;8.74;84.40
69006;SHT31;56061;51.748;19.620;2023-04-01T05:18:52;8.75;84.38
69006;SHT31;56061;51.748;19.620;2023-04-01T05:21:18;8.75;84.35
69006;SHT31;56061;51.748;19.620;2023-04-01T05:23:45;8.75;84.35
69006;SHT31;56061;51.748;19.620;2023-04-01T05:26:12;8.72;84.37
69006;SHT31;56061;51.748;19.620;2023-04-01T05:28:40;8.71;84.49
69006;SHT31;56061;51.748;19.620;2023-04-01T05:31:08;8.72;84.46
69006;SHT31;56061;51.748;19.620;2023-04-01T05:33:34;8.76;84.45
69006;SHT31;56061;51.748;19.620;2023-04-01T05:36:05;8.83;84.57
69006;SHT31;56061;51.748;19.620;2023-04-01T05:38:42;8.90;84.41
69006;SHT31;56061;51.748;19.620;2023-04-01T05:41:11;8.95;84.30
69006;SHT31;56061;51.748;19.620;2023-04-01T05:43:39;9.02;84.27
69006;SHT31;56061;51.748;19.620;2023-04-01T05:46:07;9.08;84.17
69006;SHT31;56061;51.748;19.620;2023-04-01T05:48:34;9.16;84.04
69006;SHT31;56061;51.748;19.620;2023-04-01T05:51:01;9.25;84.03
69006;SHT31;56061;51.748;19.620;2023-04-01T05:53:29;9.35;84.02
69006;SHT31;56061;51.748;19.620;2023-04-01T05:55:56;9.45;83.89
69006;SHT31;56061;51.748;19.620;2023-04-01T05:58:22;9.52;83.74
69006;SHT31;56061;51.748;19.620;2023-04-01T06:00:49;9.57;83.72
69006;SHT31;56061;51.748;19.620;2023-04-01T06:03:33;9.61;83.54
69006;SHT31;56061;51.748;19.620;2023-04-01T06:06:00;9.61;83.49
69006;SHT31;56061;51.748;19.620;2023-04-01T06:08:28;9.63;83.39
69006;SHT31;56061;51.748;19.620;2023-04-01T06:16:42;9.65;83.25
69006;SHT31;56061;51.748;19.620;2023-04-01T06:25:21;9.79;83.20
69006;SHT31;56061;51.748;19.620;2023-04-01T06:28:07;9.87;83.23
69006;SHT31;56061;51.748;19.620;2023-04-01T06:31:20;9.95;83.06
69006;SHT31;56061;51.748;19.620;2023-04-01T06:40:22;10.07;82.62
69006;SHT31;56061;51.748;19.620;2023-04-01T06:49:11;10.14;82.28
69006;SHT31;56061;51.748;19.620;2023-04-01T06:54:58;10.15;82.17
69006;SHT31;56061;51.748;19.620;2023-04-01T06:57:42;10.22;82.12
69006;SHT31;56061;51.748;19.620;2023-04-01T07:00:20;10.26;82.07
69006;SHT31;56061;51.748;19.620;2023-04-01T07:05:56;10.35;81.73
69006;SHT31;56061;51.748;19.620;2023-04-01T07:08:29;10.44;81.78
69006;SHT31;56061;51.748;19.620;2023-04-01T07:11:03;10.56;81.78
69006;SHT31;56061;51.748;19.620;2023-04-01T07:19:12;10.75;81.29
69006;SHT31;56061;51.748;19.620;2023-04-01T07:21:58;10.76;81.22
69006;SHT31;56061;51.748;19.620;2023-04-01T07:24:34;10.79;81.21
69006;SHT31;56061;51.748;19.620;2023-04-01T07:27:10;10.84;81.01
69006;SHT31;56061;51.748;19.620;2023-04-01T07:29:39;10.86;80.83
69006;SHT31;56061;51.748;19.620;2023-04-01T07:32:09;10.85;80.60
69006;SHT31;56061;51.748;19.620;2023-04-01T07:38:22;10.89;80.51
69006;SHT31;56061;51.748;19.620;2023-04-01T07:41:00;10.87;80.56
69006;SHT31;56061;51.748;19.620;2023-04-01T07:52:40;10.97;80.20
69006;SHT31;56061;51.748;19.620;2023-04-01T08:00:57;11.17;79.96
69006;SHT31;56061;51.748;19.620;2023-04-01T08:06:43;11.16;79.78
69006;SHT31;56061;51.748;19.620;2023-04-01T08:15:51;11.36;79.95
69006;SHT31;56061;51.748;19.620;2023-04-01T08:18:38;11.45;79.49
69006;SHT31;56061;51.748;19.620;2023-04-01T08:21:34;11.58;79.20
69006;SHT31;56061;51.748;19.620;2023-04-01T08:27:16;11.82;78.90
69006;SHT31;56061;51.748;19.620;2023-04-01T08:29:55;11.91;78.88
69006;SHT31;56061;51.748;19.620;2023-04-01T08:32:35;12.04;78.61
69006;SHT31;56061;51.748;19.620;2023-04-01T08:38:33;12.26;78.29
69006;SHT31;56061;51.748;19.620;2023-04-01T08:50:29;12.10;77.56
69006;SHT31;56061;51.748;19.620;2023-04-01T08:59:40;11.89;78.94
69006;SHT31;56061;51.748;19.620;2023-04-01T09:05:53;11.81;79.27
69006;SHT31;56061;51.748;19.620;2023-04-01T09:08:50;11.75;79.38
69006;SHT31;56061;51.748;19.620;2023-04-01T09:14:45;11.72;79.91
69006;SHT31;56061;51.748;19.620;2023-04-01T09:18:16;11.88;80.21
69006;SHT31;56061;51.748;19.620;2023-04-01T09:24:06;12.01;80.02
69006;SHT31;56061;51.748;19.620;2023-04-01T09:27:02;12.03;80.19
69006;SHT31;56061;51.748;19.620;2023-04-01T09:29:46;12.09;80.49
69006;SHT31;56061;51.748;19.620;2023-04-01T09:32:53;12.17;80.25
69006;SHT31;56061;51.748;19.620;2023-04-01T09:38:56;12.05;79.88
69006;SHT31;56061;51.748;19.620;2023-04-01T09:41:30;11.92;79.79
69006;SHT31;56061;51.748;19.620;2023-04-01T09:44:03;11.81;79.98
69006;SHT31;56061;51.748;19.620;2023-04-01T09:46:58;11.70;80.18
69006;SHT31;56061;51.748;19.620;2023-04-01T09:52:50;11.47;80.59
69006;SHT31;56061;51.748;19.620;2023-04-01T10:01:31;11.46;80.99
69006;SHT31;56061;51.748;19.620;2023-04-01T10:13:24;11.76;81.02
69006;SHT31;56061;51.748;19.620;2023-04-01T10:19:49;12.03;80.68
69006;SHT31;56061;51.748;19.620;2023-04-01T10:22:36;12.20;80.11
69006;SHT31;56061;51.748;19.620;2023-04-01T10:31:14;12.38;79.89
69006;SHT31;56061;51.748;19.620;2023-04-01T10:37:37;12.26;79.95
69006;SHT31;56061;51.748;19.620;2023-04-01T10:43:19;12.31;79.40
69006;SHT31;56061;51.748;19.620;2023-04-01T10:50:01;12.31;78.93
69006;SHT31;56061;51.748;19.620;2023-04-01T10:59:32;11.86;77.36
69006;SHT31;56061;51.748;19.620;2023-04-01T11:02:02;11.75;77.53
69006;SHT31;56061;51.748;19.620;2023-04-01T11:08:08;11.68;78.11
69006;SHT31;56061;51.748;19.620;2023-04-01T11:11:20;11.75;78.56
69006;SHT31;56061;51.748;19.620;2023-04-01T11:14:15;11.75;78.60
69006;SHT31;56061;51.748;19.620;2023-04-01T11:26:04;11.76;78.74
69006;SHT31;56061;51.748;19.620;2023-04-01T11:28:48;11.77;78.77
69006;SHT31;56061;51.748;19.620;2023-04-01T11:31:51;11.81;78.86
69006;SHT31;56061;51.748;19.620;2023-04-01T11:34:53;11.81;79.01
69006;SHT31;56061;51.748;19.620;2023-04-01T11:40:22;11.64;79.42
69006;SHT31;56061;51.748;19.620;2023-04-01T11:43:06;11.52;79.61
69006;SHT31;56061;51.748;19.620;2023-04-01T11:46:51;11.41;79.77
69006;SHT31;56061;51.748;19.620;2023-04-01T11:55:19;11.23;79.48
69006;SHT31;56061;51.748;19.620;2023-04-01T11:58:17;11.25;79.71
69006;SHT31;56061;51.748;19.620;2023-04-01T12:10:20;11.58;79.96
69006;SHT31;56061;51.748;19.620;2023-04-01T12:12:54;11.63;80.00
69006;SHT31;56061;51.748;19.620;2023-04-01T12:21:28;11.70;79.46
69006;SHT31;56061;51.748;19.620;2023-04-01T12:24:25;11.63;79.52
69006;SHT31;56061;51.748;19.620;2023-04-01T12:27:14;11.54;79.71
69006;SHT31;56061;51.748;19.620;2023-04-01T12:30:06;11.47;79.88
69006;SHT31;56061;51.748;19.620;2023-04-01T12:33:18;11.35;79.84
69006;SHT31;56061;51.748;19.620;2023-04-01T12:36:18;11.22;79.43
69006;SHT31;56061;51.748;19.620;2023-04-01T12:39:22;11.13;79.61
69006;SHT31;56061;51.748;19.620;2023-04-01T12:45:44;11.08;79.72
69006;SHT31;56061;51.748;19.620;2023-04-01T12:51:23;11.13;79.52
69006;SHT31;56061;51.748;19.620;2023-04-01T12:54:24;11.10;79.59
69006;SHT31;56061;51.748;19.620;2023-04-01T13:21:31;11.16;80.25
69006;SHT31;56061;51.748;19.620;2023-04-01T13:24:43;11.17;79.91
69006;SHT31;56061;51.748;19.620;2023-04-01T13:27:37;11.20;80.25
69006;SHT31;56061;51.748;19.620;2023-04-01T13:30:28;11.22;79.87
69006;SHT31;56061;51.748;19.620;2023-04-01T13:33:17;11.21;79.72
69006;SHT31;56061;51.748;19.620;2023-04-01T13:36:13;11.20;80.09
69006;SHT31;56061;51.748;19.620;2023-04-01T13:45:15;10.91;80.34
69006;SHT31;56061;51.748;19.620;2023-04-01T13:59:51;10.46;81.27
69006;SHT31;56061;51.748;19.620;2023-04-01T14:02:55;10.42;81.47
69006;SHT31;56061;51.748;19.620;2023-04-01T14:06:02;10.41;81.59
69006;SHT31;56061;51.748;19.620;2023-04-01T14:17:54;10.31;82.20
69006;SHT31;56061;51.748;19.620;2023-04-01T14:20:51;10.27;82.52
69006;SHT31;56061;51.748;19.620;2023-04-01T14:32:55;10.10;82.70
69006;SHT31;56061;51.748;19.620;2023-04-01T14:47:24;9.98;83.42
69006;SHT31;56061;51.748;19.620;2023-04-01T14:50:09;9.93;83.56
69006;SHT31;56061;51.748;19.620;2023-04-01T14:55:58;9.82;83.87
69006;SHT31;56061;51.748;19.620;2023-04-01T14:58:44;9.79;83.98
69006;SHT31;56061;51.748;19.620;2023-04-01T15:10:34;9.67;84.98
69006;SHT31;56061;51.748;19.620;2023-04-01T15:13:48;9.63;84.93
69006;SHT31;56061;51.748;19.620;2023-04-01T15:25:42;9.59;85.25
69006;SHT31;56061;51.748;19.620;2023-04-01T15:31:13;9.56;85.32
69006;SHT31;56061;51.748;19.620;2023-04-01T15:39:46;9.28;85.18
69006;SHT31;56061;51.748;19.620;2023-04-01T15:42:32;9.21;85.25
69006;SHT31;56061;51.748;19.620;2023-04-01T15:45:36;9.12;85.24
69006;SHT31;56061;51.748;19.620;2023-04-01T15:54:02;8.87;85.52
69006;SHT31;56061;51.748;19.620;2023-04-01T15:57:11;8.78;85.94
69006;SHT31;56061;51.748;19.620;2023-04-01T16:12:07;8.35;86.98
69006;SHT31;56061;51.748;19.620;2023-04-01T16:15:27;8.31;87.12
69006;SHT31;56061;51.748;19.620;2023-04-01T16:18:48;8.27;87.49
69006;SHT31;56061;51.748;19.620;2023-04-01T16:27:32;8.22;87.84
69006;SHT31;56061;51.748;19.620;2023-04-01T16:38:32;8.16;87.67
69006;SHT31;56061;51.748;19.620;2023-04-01T16:41:10;8.16;87.83
69006;SHT31;56061;51.748;19.620;2023-04-01T16:43:45;8.18;87.76
69006;SHT31;56061;51.748;19.620;2023-04-01T16:46:28;8.18;87.61
69006;SHT31;56061;51.748;19.620;2023-04-01T16:49:15;8.19;87.65
69006;SHT31;56061;51.748;19.620;2023-04-01T16:57:24;8.10;87.77
69006;SHT31;56061;51.748;19.620;2023-04-01T17:00:25;8.10;87.63
69006;SHT31;56061;51.748;19.620;2023-04-01T17:03:04;8.10;87.74
69006;SHT31;56061;51.748;19.620;2023-04-01T17:09:09;8.09;87.73
69006;SHT31;56061;51.748;19.620;2023-04-01T17:12:46;8.07;87.71
69006;SHT31;56061;51.748;19.620;2023-04-01T17:15:43;8.06;87.60
69006;SHT31;56061;51.748;19.620;2023-04-01T17:18:24;8.07;87.57
69006;SHT31;56061;51.748;19.620;2023-04-01T17:21:39;8.06;87.53
69006;SHT31;56061;51.748;19.620;2023-04-01T17:27:58;8.01;87.85
69006;SHT31;56061;51.748;19.620;2023-04-01T17:30:49;7.98;87.90
69006;SHT31;56061;51.748;19.620;2023-04-01T17:39:44;7.89;88.02
69006;SHT31;56061;51.748;19.620;2023-04-01T17:45:17;7.84;88.10
69006;SHT31;56061;51.748;19.620;2023-04-01T17:48:10;7.84;88.18
69006;SHT31;56061;51.748;19.620;2023-04-01T17:51:03;7.82;88.27
69006;SHT31;56061;51.748;19.620;2023-04-01T17:56:55;7.84;88.13
69006;SHT31;56061;51.748;19.620;2023-04-01T17:59:59;7.81;88.34
69006;SHT31;56061;51.748;19.620;2023-04-01T18:06:19;7.72;88.60
69006;SHT31;56061;51.748;19.620;2023-04-01T18:12:09;7.71;88.72
69006;SHT31;56061;51.748;19.620;2023-04-01T18:20:38;7.70;88.73
69006;SHT31;56061;51.748;19.620;2023-04-01T18:23:23;7.70;88.91
69006;SHT31;56061;51.748;19.620;2023-04-01T18:26:04;7.71;88.85
69006;SHT31;56061;51.748;19.620;2023-04-01T18:32:07;7.71;88.78
69006;SHT31;56061;51.748;19.620;2023-04-01T18:35:00;7.71;88.76
69006;SHT31;56061;51.748;19.620;2023-04-01T18:40:42;7.71;88.76
69006;SHT31;56061;51.748;19.620;2023-04-01T18:46:05;7.73;88.56
69006;SHT31;56061;51.748;19.620;2023-04-01T18:49:07;7.71;88.44
69006;SHT31;56061;51.748;19.620;2023-04-01T18:51:57;7.68;88.34
69006;SHT31;56061;51.748;19.620;2023-04-01T18:54:43;7.64;88.41
69006;SHT31;56061;51.748;19.620;2023-04-01T18:57:19;7.61;88.38
69006;SHT31;56061;51.748;19.620;2023-04-01T18:59:53;7.58;88.37
69006;SHT31;56061;51.748;19.620;2023-04-01T19:02:31;7.56;88.44
69006;SHT31;56061;51.748;19.620;2023-04-01T19:07:50;7.52;88.41
69006;SHT31;56061;51.748;19.620;2023-04-01T19:16:05;7.53;88.32
69006;SHT31;56061;51.748;19.620;2023-04-01T19:19:12;7.51;88.33
69006;SHT31;56061;51.748;19.620;2023-04-01T19:21:57;7.48;88.26
69006;SHT31;56061;51.748;19.620;2023-04-01T19:25:02;7.43;88.31
69006;SHT31;56061;51.748;19.620;2023-04-01T19:27:50;7.41;88.34
69006;SHT31;56061;51.748;19.620;2023-04-01T19:30:31;7.41;88.51
69006;SHT31;56061;51.748;19.620;2023-04-01T19:39:20;7.31;88.69
69006;SHT31;56061;51.748;19.620;2023-04-01T19:48:43;7.22;88.82
69006;SHT31;56061;51.748;19.620;2023-04-01T20:00:22;7.20;88.75
69006;SHT31;56061;51.748;19.620;2023-04-01T20:06:09;7.19;88.61
69006;SHT31;56061;51.748;19.620;2023-04-01T20:12:00;7.17;88.62
69006;SHT31;56061;51.748;19.620;2023-04-01T20:14:34;7.16;88.64
69006;SHT31;56061;51.748;19.620;2023-04-01T20:17:16;7.17;88.66
69006;SHT31;56061;51.748;19.620;2023-04-01T20:19:53;7.16;88.62
69006;SHT31;56061;51.748;19.620;2023-04-01T20:25:15;7.16;88.67
69006;SHT31;56061;51.748;19.620;2023-04-01T20:28:02;7.18;88.55
69006;SHT31;56061;51.748;19.620;2023-04-01T20:31:01;7.16;88.48
69006;SHT31;56061;51.748;19.620;2023-04-01T20:36:46;7.03;88.59
69006;SHT31;56061;51.748;19.620;2023-04-01T20:42:49;6.95;88.55
69006;SHT31;56061;51.748;19.620;2023-04-01T20:51:36;6.86;88.70
69006;SHT31;56061;51.748;19.620;2023-04-01T20:57:06;6.82;88.75
69006;SHT31;56061;51.748;19.620;2023-04-01T21:29:39;6.55;89.02
69006;SHT31;56061;51.748;19.620;2023-04-01T21:38:42;6.48;89.08
69006;SHT31;56061;51.748;19.620;2023-04-01T21:41:23;6.47;89.12
69006;SHT31;56061;51.748;19.620;2023-04-01T21:44:36;6.45;89.08
69006;SHT31;56061;51.748;19.620;2023-04-01T21:47:22;6.42;89.04
69006;SHT31;56061;51.748;19.620;2023-04-01T21:50:26;6.39;89.09
69006;SHT31;56061;51.748;19.620;2023-04-01T22:08:45;6.21;89.01
69006;SHT31;56061;51.748;19.620;2023-04-01T22:11:31;6.17;89.00
69006;SHT31;56061;51.748;19.620;2023-04-01T22:17:03;6.12;89.15
69006;SHT31;56061;51.748;19.620;2023-04-01T22:19:48;6.10;89.23
69006;SHT31;56061;51.748;19.620;2023-04-01T22:22:45;6.09;89.27
69006;SHT31;56061;51.748;19.620;2023-04-01T22:28:46;6.05;89.25
69006;SHT31;56061;51.748;19.620;2023-04-01T22:32:00;6.05;89.25
69006;SHT31;56061;51.748;19.620;2023-04-01T22:34:45;6.07;89.18
69006;SHT31;56061;51.748;19.620;2023-04-01T22:37:43;6.05;89.10
69006;SHT31;56061;51.748;19.620;2023-04-01T22:40:53;5.99;89.11
69006;SHT31;56061;51.748;19.620;2023-04-01T22:43:31;5.94;89.12
69006;SHT31;56061;51.748;19.620;2023-04-01T22:46:08;5.92;89.13
69006;SHT31;56061;51.748;19.620;2023-04-01T22:52:29;5.85;88.96
69006;SHT31;56061;51.748;19.620;2023-04-01T22:55:05;5.85;88.95
69006;SHT31;56061;51.748;19.620;2023-04-01T22:57:51;5.84;88.96
69006;SHT31;56061;51.748;19.620;2023-04-01T23:00:47;5.82;88.99
69006;SHT31;56061;51.748;19.620;2023-04-01T23:06:01;5.79;88.92
69006;SHT31;56061;51.748;19.620;2023-04-01T23:11:22;5.70;88.71
69006;SHT31;56061;51.748;19.620;2023-04-01T23:14:02;5.63;88.65
69006;SHT31;56061;51.748;19.620;2023-04-01T23:20:03;5.57;88.61
69006;SHT31;56061;51.748;19.620;2023-04-01T23:28:52;5.50;88.36
69006;SHT31;56061;51.748;19.620;2023-04-01T23:31:26;5.42;88.33
69006;SHT31;56061;51.748;19.620;2023-04-01T23:33:58;5.35;88.36
69006;SHT31;56061;51.748;19.620;2023-04-01T23:36:29;5.28;88.44
69006;SHT31;56061;51.748;19.620;2023-04-01T23:39:04;5.23;88.43
69006;SHT31;56061;51.748;19.620;2023-04-01T23:41:48;5.20;88.50
69006;SHT31;56061;51.748;19.620;2023-04-01T23:44:19;5.18;88.52
69006;SHT31;56061;51.748;19.620;2023-04-01T23:46:47;5.18;88.57
69006;SHT31;56061;51.748;19.620;2023-04-01T23:49:17;5.14;88.58
69006;SHT31;56061;51.748;19.620;2023-04-01T23:51:58;5.14;88.59
69006;SHT31;56061;51.748;19.620;2023-04-01T23:54:34;5.13;88.61
69006;SHT31;56061;51.748;19.620;2023-04-01T23:57:14;5.11;88.59
69006;SHT31;56061;51.748;19.620;2023-04-01T23:59:58;5.10;88.55
